Pagrindinis puslapis
METAR-TAF:

METAR-TAF

Oro uostai :

Vysbadenas, Vokietija

platuma: 50-03N, ilguma: 008-20E, Aukštis: 140 m

Dabartinis oras

Ataskaita buvo paskelbta 9 minutes, ne 23:56 UTC
Vėjas 7 kt iš Šiaurės
Temperatūra 7°C
Drėgmė 57%
Slėgis 1021 hPa
Matomumas 10 km arba daugiau
Giedras dangus

METAR: ETOU 282356Z AUTO 35007KT 9999 CLR 07/M01 A3016 RMK AO2 SLP217 T00741008 10144 20074 52016 $

Laikas: 01:05 (00:05 UTC)

Prognozė

Ataskaita buvo paskelbta 4 valandos ir 5 minutes, ne 20:00 UTC
Prognozė galioja nuo 27 metu 20 UTC su 28 metu 19 UTC
Vėjas 9 kt iš Rytų
Matomumas 10 km arba daugiau
Giedras dangus
Tapsmas
nuo 27 metu 20 UTC su 27 metu 21 UTC
Vėjas 9 kt iš Šiaurės/Šiaurės Rytų
Matomumas: 2720 m
Giedras dangus

TAF: ETOU 272000Z 2720/2819 09009KT 9999 SKC QNH3002INS BECMG 2720/2721 02009KT 9999 SKC QNH3005INS TX12/2720Z TN07/2806Z LAST NO AMDS AFT 2720 NEXT3005

Orai ataskaitas ir orų prognozės (METAR, TAF).

turimą stotys yra geltonos ir raudonos taškus žemėlapyje.

Perkelti pele per norėdami pamatyti stoties vardą.

Tada spustelėkite, norėdami matyti oro stebėjimo ir prognozės.

Norėdami pakeisti žemėlapį: spustelėkite ant žalios mygtukų su juodo kryžiaus žemyn,; žalią mygtuką su brūkšneliu, jei norite nutolinti; arba žalių rodyklių gretimoms žemėlapius.


METAR-TAF: